Aviation Digital Data Service (ADDS)

Output produced by METARs form (2122 UTC 26 November 2014)
found at http://www.aviationweather.gov/adds/metars/
 
KUNV 262053Z 06004KT 3/4SM -SN BR BKN003 OVC011 00/M01 A2998
KUNV 261953Z 03004KT 3/4SM -SN BR OVC005 00/M01 A2997
KUNV 261853Z 04005KT 3/4SM -SN BR BKN002 OVC005 00/M01 A2997
KUNV 261753Z 04005KT 1SM -SN BR OVC003 00/M01 A3002
KUNV 261653Z 03005KT 3/4SM -SN BR OVC003 00/M01 A3005
KUNV 261553Z 03004KT 1/2SM SN OVC005 00/M01 A3008
KUNV 261516Z 05003KT 1/2SM SN OVC005 M01/M01 A3010
KUNV 261453Z 00000KT 1SM -SN OVC012 00/M01 A3012
KUNV 261353Z 05006KT 2SM -SN OVC015 00/M02 A3007
KUNV 261333Z 06006KT 2SM -SN BKN015 BKN023 OVC040 00/M03 A3010
KUNV 261318Z 06004KT 3SM -SN BKN027 BKN039 OVC060 00/M03 A3012
KUNV 261253Z 01004KT 10SM SCT060 OVC070 00/M03 A3010
KUNV 261153Z 04006KT 10SM OVC100 00/M03 A3007
KUNV 261053Z 05006KT 10SM OVC100 00/M03 A3010
KUNV 261035Z AUTO 02005KT 10SM OVC110 00/M03 A3012 RMK AO2 T00011030
KUNV 261015Z AUTO 01003KT 10SM BKN120 00/M03 A3013 RMK AO2 T10021026
KUNV 260955Z AUTO 03006KT 10SM BKN120 00/M03 A3011 RMK AO2 T00011028
KUNV 260935Z AUTO 06003KT 10SM SCT120 00/M03 A3013 RMK AO2 T10051026
KUNV 260915Z AUTO 08003KT 10SM BKN120 00/M03 A3013 RMK AO2 T00001030
KUNV 260855Z AUTO 36003KT 10SM BKN120 01/M03 A3016 RMK AO2 T00061034
KUNV 260835Z AUTO 00000KT 10SM SCT120 00/M03 A3018 RMK AO2 T00001030
KUNV 260815Z AUTO 00000KT 10SM CLR 00/M03 A3016 RMK AO2 T00001030
KUNV 260755Z AUTO 29005KT 10SM CLR 00/M03 A3018 RMK AO2 T00041031
KUNV 260735Z AUTO 00000KT 10SM CLR 00/M03 A3018 RMK AO2 T00031029
KUNV 260715Z AUTO 00000KT 10SM CLR 01/M03 A3017 RMK AO2 T00061029
KUNV 260655Z AUTO 00000KT 10SM CLR 01/M03 A3019 RMK AO2 T00051030
KUNV 260635Z AUTO 00000KT 10SM CLR 00/M03 A3018 RMK AO2 T00001030
KUNV 260615Z AUTO 00000KT 10SM CLR 00/M03 A3018 RMK AO2 T00011030
KUNV 260555Z AUTO 00000KT 10SM CLR 01/M03 A3017 RMK AO2 T00061032 10049 20001
KUNV 260535Z AUTO 00000KT 10SM CLR 01/M03 A3018 RMK AO2 T00051032
KUNV 260515Z AUTO 00000KT 10SM CLR 01/M03 A3015 RMK AO2 T00051033
KUNV 260455Z AUTO 00000KT 10SM CLR 02/M03 A3015 RMK AO2 T00151033
KUNV 260435Z AUTO 00000KT 10SM CLR 02/M03 A3016 RMK AO2 T00191032
KUNV 260415Z AUTO 29003KT 10SM CLR 02/M03 A3016 RMK AO2 T00181032
KUNV 260355Z AUTO 29003KT 10SM CLR 01/M03 A3016 RMK AO2 T00141032 401270014
KUNV 260335Z AUTO 27005KT 10SM CLR 02/M03 A3016 RMK AO2 T00191032
KUNV 260315Z AUTO 23003KT 10SM CLR 02/M03 A3015 RMK AO2 T00211031
KUNV 260255Z AUTO 00000KT 10SM CLR 02/M03 A3015 RMK AO2 T00241028
KUNV 260153Z 32007KT 10SM SKC 03/M02 A3015
KUNV 260053Z 29005KT 10SM SKC 03/M02 A3012
KUNV 252353Z 25006KT 10SM SKC 05/M02 A3009
KUNV 252253Z 00000KT 10SM SKC 05/M02 A3006
KUNV 252153Z 25005KT 10SM SKC 06/M02 A3002
KUNV 252053Z 26010G15KT 10SM FEW040 08/M02 A3002
KUNV 251953Z 25012G20KT 10SM FEW040 09/M02 A3000
KUNV 251853Z 26015G25KT 10SM SCT048 09/M02 A3001
KUNV 251753Z 23012G22KT 10SM SCT048 09/M02 A3001
KUNV 251653Z 26015G20KT 10SM SCT050 SCT055 08/M02 A3001
KUNV 251553Z 23013KT 10SM SCT047 08/M02 A3002
KUNV 251453Z 25015KT 10SM FEW040 07/M01 A3000
KUNV 251353Z 24013G20KT 10SM FEW040 06/M01 A2999
KUNV 251253Z 23006KT 10SM FEW040 05/M01 A2998
KUNV 251153Z 22007KT 10SM FEW039 05/M02 A2997
KUNV 251053Z 23008KT 10SM SCT039 05/M02 A2994
KUNV 251035Z AUTO 21007KT 10SM SCT039 05/M02 A2994 RMK AO2 T00491016
KUNV 251015Z AUTO 23010KT 10SM BKN041 05/M01 A2993 RMK AO2 T00501015
KUNV 250955Z AUTO 23009KT 10SM CLR 05/M02 A2993 RMK AO2 T00461018
KUNV 250935Z AUTO 24010KT 10SM CLR 05/M02 A2992 RMK AO2 T00501018